createdAt,value
2022-10-07T00:01:12.033Z,4.87
2022-10-07T00:03:40.252Z,4.82
2022-10-07T00:06:12.608Z,4.86
2022-10-07T00:08:43.263Z,4.87
2022-10-07T00:11:17.778Z,4.86
2022-10-07T00:13:48.000Z,4.87
2022-10-07T00:16:21.880Z,4.86
2022-10-07T00:18:50.994Z,4.84
2022-10-07T00:21:20.541Z,4.79
2022-10-07T00:23:49.468Z,4.80
2022-10-07T00:26:23.781Z,4.81
2022-10-07T00:28:52.339Z,4.78
2022-10-07T00:31:25.843Z,4.78
2022-10-07T00:33:56.127Z,4.78
2022-10-07T00:36:27.151Z,4.77
2022-10-07T00:39:00.853Z,4.74
2022-10-07T00:41:38.152Z,4.71
2022-10-07T00:44:43.332Z,4.66
2022-10-07T00:47:12.922Z,4.64
2022-10-07T00:50:05.885Z,4.58
2022-10-07T00:52:37.643Z,4.60
2022-10-07T00:55:08.344Z,4.55
2022-10-07T00:57:37.984Z,4.50
2022-10-07T01:00:07.494Z,4.51
2022-10-07T01:02:38.173Z,4.45
2022-10-07T01:05:08.608Z,4.39
2022-10-07T01:07:37.603Z,4.36
2022-10-07T01:10:07.431Z,4.31
2022-10-07T01:12:40.981Z,4.26
2022-10-07T01:15:40.619Z,4.24
2022-10-07T01:18:26.753Z,4.23
2022-10-07T01:20:59.985Z,4.22
2022-10-07T01:23:54.062Z,4.22
2022-10-07T01:26:31.660Z,4.18
2022-10-07T01:29:04.632Z,4.16
2022-10-07T01:31:58.442Z,4.15
2022-10-07T01:34:26.882Z,4.13
2022-10-07T01:36:57.545Z,4.08
2022-10-07T01:39:31.293Z,4.08
2022-10-07T01:41:59.718Z,4.09
2022-10-07T01:44:32.068Z,4.04
2022-10-07T01:47:00.382Z,3.99
2022-10-07T01:49:29.535Z,4.02
2022-10-07T01:52:24.939Z,3.98
2022-10-07T01:55:17.919Z,3.93
2022-10-07T01:58:22.349Z,3.85
2022-10-07T02:01:26.017Z,3.88
2022-10-07T02:04:14.180Z,3.87
2022-10-07T02:07:09.644Z,3.80
2022-10-07T02:09:46.889Z,3.86
2022-10-07T02:12:16.317Z,3.85
2022-10-07T02:15:04.497Z,3.82
2022-10-07T02:17:35.281Z,3.80
2022-10-07T02:20:04.774Z,3.77
2022-10-07T02:22:33.599Z,3.74
2022-10-07T02:25:02.240Z,3.68
2022-10-07T02:27:35.429Z,3.67
2022-10-07T02:30:08.247Z,3.64
2022-10-07T02:32:36.918Z,3.68
2022-10-07T02:35:13.293Z,3.64
2022-10-07T02:37:43.111Z,3.55
2022-10-07T02:40:12.737Z,3.57
2022-10-07T02:42:58.659Z,3.56
2022-10-07T02:45:39.298Z,3.52
2022-10-07T02:48:15.560Z,3.49
2022-10-07T02:50:47.400Z,3.50
2022-10-07T02:53:16.957Z,3.48
2022-10-07T02:55:48.549Z,3.48
2022-10-07T02:58:16.905Z,3.49
2022-10-07T03:00:48.276Z,3.47
2022-10-07T03:03:17.077Z,3.47
2022-10-07T03:05:53.245Z,3.44
2022-10-07T03:08:22.584Z,3.42
2022-10-07T03:10:52.264Z,3.43
2022-10-07T03:13:20.334Z,3.41
2022-10-07T03:15:53.202Z,3.39
2022-10-07T03:18:29.512Z,3.39
2022-10-07T03:21:12.924Z,3.38
2022-10-07T03:23:42.017Z,3.37
2022-10-07T03:26:11.843Z,3.33
2022-10-07T03:28:40.576Z,3.28
2022-10-07T03:31:10.511Z,3.29
2022-10-07T03:33:43.950Z,3.28
2022-10-07T03:36:13.144Z,3.22
2022-10-07T03:38:43.566Z,3.21
2022-10-07T03:41:13.181Z,3.24
2022-10-07T03:43:41.643Z,3.29
2022-10-07T03:46:11.468Z,3.30
2022-10-07T03:48:40.331Z,3.31
2022-10-07T03:51:09.608Z,3.31
2022-10-07T03:53:40.423Z,3.29
2022-10-07T03:56:09.106Z,3.29
2022-10-07T03:58:39.584Z,3.26
2022-10-07T04:01:12.269Z,3.23
2022-10-07T04:03:46.772Z,3.19
2022-10-07T04:06:15.383Z,3.16
2022-10-07T04:08:44.986Z,3.12
2022-10-07T04:11:14.320Z,3.08
2022-10-07T04:13:45.265Z,3.09
2022-10-07T04:16:13.858Z,3.07
2022-10-07T04:18:43.078Z,3.13
2022-10-07T04:21:11.521Z,3.10
2022-10-07T04:23:41.504Z,3.08
2022-10-07T04:26:11.655Z,3.03
2022-10-07T04:28:43.484Z,2.99
2022-10-07T04:31:14.934Z,2.98
2022-10-07T04:33:48.661Z,2.98
2022-10-07T04:36:22.322Z,3.01
2022-10-07T04:38:57.014Z,3.00
2022-10-07T04:41:29.499Z,2.96
2022-10-07T04:43:58.213Z,2.98
2022-10-07T04:46:30.036Z,2.94
2022-10-07T04:49:05.309Z,2.96
2022-10-07T04:51:33.485Z,2.94
2022-10-07T04:54:02.765Z,2.96
2022-10-07T04:56:37.494Z,2.94
2022-10-07T04:59:08.152Z,2.92
2022-10-07T05:01:37.791Z,2.93
2022-10-07T05:04:06.147Z,2.95
2022-10-07T05:06:35.378Z,2.97
2022-10-07T05:09:03.998Z,2.95
2022-10-07T05:11:35.623Z,2.99
2022-10-07T05:14:09.455Z,3.00
2022-10-07T05:16:38.092Z,3.01
2022-10-07T05:19:07.181Z,3.06
2022-10-07T05:21:34.924Z,3.06
2022-10-07T05:24:04.804Z,3.15
2022-10-07T05:26:37.331Z,3.25
2022-10-07T05:29:07.740Z,3.32
2022-10-07T05:31:44.227Z,3.42
2022-10-07T05:34:15.315Z,3.64
2022-10-07T05:36:44.556Z,3.93
2022-10-07T05:39:13.869Z,4.27
2022-10-07T05:41:55.961Z,4.55
2022-10-07T05:44:30.013Z,5.01
2022-10-07T05:46:59.559Z,5.47
2022-10-07T05:49:28.166Z,5.96
2022-10-07T05:51:56.986Z,6.38
2022-10-07T05:54:25.684Z,6.79
2022-10-07T05:56:55.248Z,7.15
2022-10-07T05:59:24.497Z,7.43
2022-10-07T06:02:00.385Z,7.83
2022-10-07T06:04:29.681Z,8.26
2022-10-07T06:06:58.078Z,8.59
2022-10-07T06:09:44.959Z,9.02
2022-10-07T06:12:36.973Z,9.40
2022-10-07T06:15:10.708Z,9.81
2022-10-07T06:17:44.438Z,10.11
2022-10-07T06:20:15.496Z,10.38
2022-10-07T06:22:44.568Z,10.66
2022-10-07T06:25:14.781Z,10.93
2022-10-07T06:27:45.092Z,11.24
2022-10-07T06:30:16.231Z,11.47
2022-10-07T06:32:45.272Z,11.80
2022-10-07T06:35:14.269Z,12.10
2022-10-07T06:37:43.111Z,12.32
2022-10-07T06:40:12.486Z,12.59
2022-10-07T06:42:41.142Z,12.88
2022-10-07T06:45:44.364Z,13.23
2022-10-07T06:48:14.734Z,13.44
2022-10-07T06:50:53.268Z,13.78
2022-10-07T06:53:22.669Z,13.88
2022-10-07T06:55:52.306Z,14.13
2022-10-07T06:58:22.611Z,14.32
2022-10-07T07:00:52.670Z,14.53
2022-10-07T07:03:24.357Z,14.74
2022-10-07T07:05:54.491Z,14.82
2022-10-07T07:08:32.551Z,14.80
2022-10-07T07:11:06.264Z,15.01
2022-10-07T07:13:36.456Z,15.35
2022-10-07T07:16:05.131Z,15.43
2022-10-07T07:18:35.154Z,15.37
2022-10-07T07:21:03.644Z,15.47
2022-10-07T07:23:34.100Z,15.38
2022-10-07T07:26:01.819Z,15.59
2022-10-07T07:28:31.610Z,15.82
2022-10-07T07:31:00.599Z,16.07
2022-10-07T07:33:29.528Z,16.13
2022-10-07T07:35:57.819Z,16.45
2022-10-07T07:38:26.120Z,16.72
2022-10-07T07:40:55.666Z,16.76
2022-10-07T07:43:24.013Z,16.77
2022-10-07T07:45:51.890Z,16.77
2022-10-07T07:48:19.974Z,16.78
2022-10-07T07:50:48.001Z,16.75
2022-10-07T07:53:16.550Z,16.58
2022-10-07T07:55:57.133Z,16.85
2022-10-07T07:58:26.737Z,17.06
2022-10-07T08:01:16.902Z,17.14
2022-10-07T08:03:47.629Z,16.99
2022-10-07T08:06:18.315Z,16.86
2022-10-07T08:08:47.642Z,16.83
2022-10-07T08:11:20.359Z,16.91
2022-10-07T08:13:51.754Z,17.14
2022-10-07T08:16:23.619Z,17.18
2022-10-07T08:18:55.554Z,17.23
2022-10-07T08:21:27.394Z,17.18
2022-10-07T08:24:00.792Z,17.39
2022-10-07T08:26:33.313Z,17.40
2022-10-07T08:29:03.972Z,17.44
2022-10-07T08:31:33.606Z,17.69
2022-10-07T08:34:02.320Z,17.93
2022-10-07T08:36:32.994Z,17.87
2022-10-07T08:39:02.178Z,18.01
2022-10-07T08:41:56.859Z,18.15
2022-10-07T08:44:30.130Z,18.39
2022-10-07T08:46:58.255Z,18.53
2022-10-07T08:49:36.420Z,18.32
2022-10-07T08:52:30.394Z,18.58
2022-10-07T08:55:00.544Z,18.89
2022-10-07T08:57:42.875Z,19.07
2022-10-07T09:00:12.855Z,18.55
2022-10-07T09:03:05.872Z,18.68
2022-10-07T09:05:43.089Z,18.42
2022-10-07T09:08:15.995Z,18.23
2022-10-07T09:10:49.783Z,17.64
2022-10-07T09:13:23.537Z,17.83
2022-10-07T09:16:18.571Z,17.98
2022-10-07T09:18:51.110Z,17.75
2022-10-07T09:21:23.785Z,17.83
2022-10-07T09:24:13.376Z,17.77
2022-10-07T09:26:41.849Z,17.69
2022-10-07T09:29:10.842Z,17.75
2022-10-07T09:31:40.283Z,17.80
2022-10-07T09:34:20.190Z,17.65
2022-10-07T09:37:33.185Z,17.67
2022-10-07T09:40:21.662Z,17.45
2022-10-07T09:42:50.296Z,17.46
2022-10-07T09:45:33.111Z,17.60
2022-10-07T09:48:15.749Z,17.77
2022-10-07T09:50:44.817Z,17.62
2022-10-07T09:53:19.275Z,17.48
2022-10-07T09:55:48.062Z,17.45
2022-10-07T09:58:21.509Z,17.47
2022-10-07T10:00:52.308Z,17.63
2022-10-07T10:03:21.038Z,17.64
2022-10-07T10:06:00.408Z,17.73
2022-10-07T10:08:36.663Z,17.80
2022-10-07T10:11:28.180Z,17.81
2022-10-07T10:13:57.085Z,17.90
2022-10-07T10:16:25.459Z,17.98
2022-10-07T10:19:04.534Z,17.97
2022-10-07T10:21:36.071Z,17.81
2022-10-07T10:24:12.584Z,17.89
2022-10-07T10:27:04.002Z,17.82
2022-10-07T10:30:06.037Z,17.68
2022-10-07T10:32:57.428Z,17.88
2022-10-07T10:35:28.866Z,17.98
2022-10-07T10:38:03.305Z,17.81
2022-10-07T10:40:36.594Z,17.88
2022-10-07T10:43:20.654Z,17.94
2022-10-07T10:45:57.597Z,17.95
2022-10-07T10:48:29.334Z,17.82
2022-10-07T10:51:13.698Z,17.85
2022-10-07T10:53:52.014Z,17.96
2022-10-07T10:56:28.617Z,18.02
2022-10-07T10:59:15.098Z,18.01
2022-10-07T11:01:46.071Z,17.91
2022-10-07T11:04:25.698Z,18.03
2022-10-07T11:07:21.629Z,18.10
2022-10-07T11:09:55.650Z,18.12
2022-10-07T11:12:30.265Z,18.07
2022-10-07T11:15:06.951Z,18.07
2022-10-07T11:17:37.868Z,18.04
2022-10-07T11:20:18.719Z,18.19
2022-10-07T11:22:57.209Z,18.22
2022-10-07T11:25:32.258Z,18.05
2022-10-07T11:28:09.364Z,18.23
2022-10-07T11:30:49.802Z,18.39
2022-10-07T11:33:28.886Z,18.38
2022-10-07T11:36:14.498Z,18.40
2022-10-07T11:38:42.884Z,18.38
2022-10-07T11:41:34.134Z,18.47
2022-10-07T11:44:05.948Z,18.58
2022-10-07T11:46:41.004Z,18.59
2022-10-07T11:49:18.374Z,18.58
2022-10-07T11:51:55.257Z,18.61
2022-10-07T11:54:27.753Z,18.66
2022-10-07T11:57:00.641Z,18.53
2022-10-07T11:59:35.123Z,18.55
2022-10-07T12:02:03.859Z,18.53
2022-10-07T12:04:34.365Z,18.61
2022-10-07T12:07:33.454Z,18.48
2022-10-07T12:10:03.976Z,18.42
2022-10-07T12:12:50.365Z,18.39
2022-10-07T12:15:42.798Z,18.48
2022-10-07T12:18:18.087Z,18.58
2022-10-07T12:20:53.526Z,18.58
2022-10-07T12:23:22.345Z,18.65
2022-10-07T12:26:30.559Z,18.67
2022-10-07T12:28:58.887Z,18.62
2022-10-07T12:31:32.630Z,18.38
2022-10-07T12:34:07.844Z,18.44
2022-10-07T12:36:38.811Z,18.61
2022-10-07T12:39:12.463Z,18.64
2022-10-07T12:41:43.281Z,18.69
2022-10-07T12:44:37.061Z,18.62
2022-10-07T12:47:28.788Z,18.64
2022-10-07T12:50:03.664Z,18.69
2022-10-07T12:52:54.961Z,18.74
2022-10-07T12:55:37.346Z,18.76
2022-10-07T12:58:42.581Z,18.81
2022-10-07T13:01:48.419Z,18.56
2022-10-07T13:04:41.430Z,18.63
2022-10-07T13:07:30.968Z,18.66
2022-10-07T13:10:26.566Z,18.54
2022-10-07T13:12:56.586Z,18.56
2022-10-07T13:15:47.727Z,18.35
2022-10-07T13:18:23.241Z,18.39
2022-10-07T13:21:03.321Z,18.40
2022-10-07T13:23:32.458Z,18.42
2022-10-07T13:26:03.109Z,18.44
2022-10-07T13:28:45.798Z,18.46
2022-10-07T13:31:21.145Z,18.47
2022-10-07T13:33:50.204Z,18.31
2022-10-07T13:36:35.220Z,18.40
2022-10-07T13:39:23.249Z,18.38
2022-10-07T13:41:56.482Z,18.41
2022-10-07T13:44:27.126Z,18.39
2022-10-07T13:46:58.565Z,18.40
2022-10-07T13:49:30.613Z,18.35
2022-10-07T13:52:01.589Z,18.40
2022-10-07T13:54:31.782Z,18.38
2022-10-07T13:57:02.543Z,18.39
2022-10-07T13:59:36.956Z,18.40
2022-10-07T14:02:05.519Z,18.32
2022-10-07T14:04:34.334Z,18.24
2022-10-07T14:07:21.992Z,18.21
2022-10-07T14:10:08.977Z,18.13
2022-10-07T14:12:46.593Z,18.06
2022-10-07T14:15:19.955Z,18.00
2022-10-07T14:17:51.906Z,18.03
2022-10-07T14:20:25.581Z,17.95
2022-10-07T14:22:55.892Z,17.93
2022-10-07T14:25:29.342Z,17.88
2022-10-07T14:27:58.096Z,17.82
2022-10-07T14:30:59.978Z,17.74
2022-10-07T14:34:25.739Z,17.65
2022-10-07T14:37:15.961Z,17.63
2022-10-07T14:39:49.819Z,17.60
2022-10-07T14:42:22.319Z,17.66
2022-10-07T14:44:50.834Z,17.63
2022-10-07T14:47:21.408Z,17.50
2022-10-07T14:49:49.571Z,17.47
2022-10-07T14:52:21.896Z,17.38
2022-10-07T14:54:51.589Z,17.34
2022-10-07T14:57:19.666Z,17.28
2022-10-07T14:59:50.586Z,17.28
2022-10-07T15:02:19.437Z,17.26
2022-10-07T15:04:48.029Z,17.19
2022-10-07T15:07:16.854Z,17.15
2022-10-07T15:09:47.230Z,17.11
2022-10-07T15:12:16.620Z,17.07
2022-10-07T15:14:44.502Z,17.03
2022-10-07T15:17:13.218Z,17.01
2022-10-07T15:19:42.011Z,16.96
2022-10-07T15:22:10.368Z,16.90
2022-10-07T15:24:39.023Z,16.79
2022-10-07T15:27:10.020Z,16.75
2022-10-07T15:29:38.349Z,16.67
2022-10-07T15:32:07.888Z,16.65
2022-10-07T15:34:36.689Z,16.57
2022-10-07T15:37:04.620Z,16.47
2022-10-07T15:39:37.447Z,16.41
2022-10-07T15:42:08.650Z,16.32
2022-10-07T15:44:37.074Z,16.24
2022-10-07T15:47:05.030Z,16.13
2022-10-07T15:49:33.337Z,16.06
2022-10-07T15:52:02.010Z,15.99
2022-10-07T15:54:30.860Z,15.89
2022-10-07T15:56:59.410Z,15.77
2022-10-07T15:59:27.561Z,15.73
2022-10-07T16:01:55.819Z,15.59
2022-10-07T16:04:24.320Z,15.52
2022-10-07T16:06:52.945Z,15.36
2022-10-07T16:09:22.678Z,15.17
2022-10-07T16:11:51.757Z,14.90
2022-10-07T16:14:19.866Z,14.75
2022-10-07T16:16:48.502Z,14.60
2022-10-07T16:19:16.406Z,14.37
2022-10-07T16:21:44.368Z,14.06
2022-10-07T16:24:18.358Z,13.97
2022-10-07T16:26:47.921Z,13.82
2022-10-07T16:29:36.540Z,13.66
2022-10-07T16:32:05.161Z,13.44
2022-10-07T16:34:33.541Z,13.31
2022-10-07T16:37:01.228Z,13.28
2022-10-07T16:39:29.266Z,13.23
2022-10-07T16:41:58.729Z,13.27
2022-10-07T16:44:28.229Z,13.25
2022-10-07T16:46:59.900Z,13.26
2022-10-07T16:49:29.452Z,13.25
2022-10-07T16:51:58.146Z,13.28
2022-10-07T16:54:30.026Z,13.31
2022-10-07T16:56:59.206Z,13.28
2022-10-07T16:59:27.962Z,13.27
2022-10-07T17:01:57.498Z,13.16
2022-10-07T17:04:26.234Z,13.06
2022-10-07T17:06:54.953Z,13.05
2022-10-07T17:09:25.073Z,13.01
2022-10-07T17:11:53.114Z,12.92
2022-10-07T17:14:22.409Z,12.88
2022-10-07T17:16:53.511Z,12.92
2022-10-07T17:19:24.944Z,12.97
2022-10-07T17:21:55.013Z,12.98
2022-10-07T17:24:24.666Z,12.93
2022-10-07T17:26:53.683Z,12.95
2022-10-07T17:29:26.641Z,13.03
2022-10-07T17:31:55.299Z,13.10
2022-10-07T17:34:24.861Z,13.16
2022-10-07T17:36:55.011Z,13.23
2022-10-07T17:39:25.282Z,13.25
2022-10-07T17:41:56.264Z,13.29
2022-10-07T17:44:27.436Z,13.32
2022-10-07T17:46:59.777Z,13.30
2022-10-07T17:49:28.874Z,13.38
2022-10-07T17:51:59.839Z,13.43
2022-10-07T17:54:29.794Z,13.43
2022-10-07T17:56:57.879Z,13.42
2022-10-07T17:59:27.204Z,13.37
2022-10-07T18:01:56.556Z,13.30
2022-10-07T18:04:25.458Z,13.32
2022-10-07T18:06:53.770Z,13.28
2022-10-07T18:09:23.471Z,13.36
2022-10-07T18:12:09.895Z,13.29
2022-10-07T18:14:56.981Z,13.25
2022-10-07T18:17:25.618Z,13.26
2022-10-07T18:19:55.317Z,13.26
2022-10-07T18:22:24.978Z,13.27
2022-10-07T18:24:57.631Z,13.23
2022-10-07T18:27:28.419Z,13.22
2022-10-07T18:29:57.294Z,13.19
2022-10-07T18:32:26.420Z,13.22
2022-10-07T18:34:54.447Z,13.18
2022-10-07T18:37:24.598Z,13.14
2022-10-07T18:39:54.330Z,13.05
2022-10-07T18:42:22.522Z,13.01
2022-10-07T18:44:50.914Z,12.96
2022-10-07T18:47:19.184Z,12.86
2022-10-07T18:49:47.817Z,12.77
2022-10-07T18:52:16.065Z,12.70
2022-10-07T18:54:44.003Z,12.70
2022-10-07T18:57:12.914Z,12.70
2022-10-07T18:59:40.716Z,12.69
2022-10-07T19:02:11.832Z,12.76
2022-10-07T19:04:40.563Z,12.79
2022-10-07T19:07:09.015Z,12.92
2022-10-07T19:09:38.080Z,12.99
2022-10-07T19:12:26.914Z,13.15
2022-10-07T19:14:54.710Z,13.21
2022-10-07T19:17:24.383Z,13.33
2022-10-07T19:19:53.115Z,13.45
2022-10-07T19:22:21.706Z,13.57
2022-10-07T19:25:09.641Z,13.68
2022-10-07T19:27:39.650Z,13.73
2022-10-07T19:30:08.407Z,13.76
2022-10-07T19:32:36.743Z,13.80
2022-10-07T19:35:06.532Z,13.88
2022-10-07T19:37:34.674Z,13.85
2022-10-07T19:40:03.673Z,13.83
2022-10-07T19:42:32.398Z,13.85
2022-10-07T19:45:01.213Z,13.93
2022-10-07T19:47:29.613Z,13.88
2022-10-07T19:49:57.376Z,13.95
2022-10-07T19:52:27.959Z,13.98
2022-10-07T19:54:56.386Z,13.98
2022-10-07T19:57:26.305Z,13.93
2022-10-07T19:59:55.840Z,13.93
2022-10-07T20:02:25.980Z,13.94
2022-10-07T20:04:54.205Z,13.87
2022-10-07T20:07:24.101Z,13.88
2022-10-07T20:09:53.109Z,13.85
2022-10-07T20:12:21.969Z,13.81
2022-10-07T20:14:50.480Z,13.85
2022-10-07T20:17:18.426Z,13.84
2022-10-07T20:19:46.952Z,13.86
2022-10-07T20:22:16.766Z,13.84
2022-10-07T20:24:45.250Z,13.77
2022-10-07T20:27:13.946Z,13.79
2022-10-07T20:30:00.112Z,13.80
2022-10-07T20:32:31.557Z,13.78
2022-10-07T20:35:00.257Z,13.80
2022-10-07T20:37:28.788Z,13.81
2022-10-07T20:40:15.910Z,13.80
2022-10-07T20:42:46.943Z,13.76
2022-10-07T20:45:16.516Z,13.76
2022-10-07T20:47:45.378Z,13.72
2022-10-07T20:50:14.704Z,13.75
2022-10-07T20:52:45.522Z,13.73
2022-10-07T20:55:14.548Z,13.68
2022-10-07T20:57:43.056Z,13.70
2022-10-07T21:00:16.695Z,13.71
2022-10-07T21:02:45.491Z,13.68
2022-10-07T21:05:14.143Z,13.70
2022-10-07T21:07:43.137Z,13.68
2022-10-07T21:10:10.953Z,13.64
2022-10-07T21:12:40.668Z,13.59
2022-10-07T21:15:09.273Z,13.58
2022-10-07T21:17:37.551Z,13.60
2022-10-07T21:20:06.419Z,13.65
2022-10-07T21:22:36.867Z,13.59
2022-10-07T21:25:05.455Z,13.54
2022-10-07T21:27:33.446Z,13.58
2022-10-07T21:30:01.825Z,13.61
2022-10-07T21:32:29.693Z,13.57
2022-10-07T21:34:57.992Z,13.52
2022-10-07T21:37:26.735Z,13.57
2022-10-07T21:39:54.684Z,13.55
2022-10-07T21:42:22.844Z,13.53
2022-10-07T21:44:51.125Z,13.42
2022-10-07T21:47:19.134Z,13.49
2022-10-07T21:49:47.205Z,13.48
2022-10-07T21:52:15.842Z,13.48
2022-10-07T21:54:43.624Z,13.49
2022-10-07T21:57:11.620Z,13.52
2022-10-07T21:59:39.597Z,13.47
2022-10-07T22:02:08.897Z,13.48
2022-10-07T22:04:37.544Z,13.46
2022-10-07T22:07:24.022Z,13.42
2022-10-07T22:09:51.778Z,13.41
2022-10-07T22:12:20.041Z,13.41
2022-10-07T22:14:47.934Z,13.42
2022-10-07T22:17:16.160Z,13.45
2022-10-07T22:19:44.413Z,13.43
2022-10-07T22:22:13.420Z,13.42
2022-10-07T22:24:41.172Z,13.37
2022-10-07T22:27:09.293Z,13.32
2022-10-07T22:29:38.515Z,13.27
2022-10-07T22:32:06.751Z,13.19
2022-10-07T22:34:53.433Z,13.16
2022-10-07T22:37:21.420Z,13.17
2022-10-07T22:39:49.817Z,13.09
2022-10-07T22:42:18.752Z,13.09
2022-10-07T22:44:47.182Z,13.09
2022-10-07T22:47:16.725Z,13.08
2022-10-07T22:49:44.598Z,13.05
2022-10-07T22:52:12.899Z,12.91
2022-10-07T22:54:40.893Z,12.95
2022-10-07T22:57:09.059Z,13.00
2022-10-07T22:59:38.878Z,12.90
2022-10-07T23:02:07.443Z,12.92
2022-10-07T23:04:35.316Z,12.85
2022-10-07T23:07:03.254Z,12.87
2022-10-07T23:09:31.730Z,12.84
2022-10-07T23:11:59.758Z,12.84
2022-10-07T23:14:27.666Z,12.79
2022-10-07T23:16:56.129Z,12.79
2022-10-07T23:19:23.878Z,12.79
2022-10-07T23:21:51.512Z,12.80
2022-10-07T23:24:20.178Z,12.86
2022-10-07T23:26:48.053Z,12.81
2022-10-07T23:29:16.446Z,12.76
2022-10-07T23:31:45.047Z,12.75
2022-10-07T23:34:14.116Z,12.67
2022-10-07T23:36:42.263Z,12.62
2022-10-07T23:39:10.713Z,12.48
2022-10-07T23:41:38.562Z,12.43
2022-10-07T23:44:06.593Z,12.28
2022-10-07T23:46:36.749Z,12.07
2022-10-07T23:49:05.264Z,11.88
2022-10-07T23:51:33.493Z,11.76
2022-10-07T23:54:04.676Z,11.63
2022-10-07T23:56:32.447Z,11.55
2022-10-07T23:59:01.779Z,11.39
